Wetterdaten: Woche 04.10.10 - 10.10.10 (KW40)
Datum Zeit Temp. A. Feuchte A. Luftdruck Regen Wind Richtung Taupunkt Windchill Windben
04.10.2010 00:00 11,7 C 77 % 1016,2 hPa 0,0 l/m 0,5 km/h N 7,8 C 11,7 C 4,8 km/h
04.10.2010 01:00 11,6 C 78 % 1015,5 hPa 0,0 l/m 0,5 km/h N 7,9 C 11,6 C 8,8 km/h
04.10.2010 02:00 11,6 C 78 % 1014,8 hPa 0,0 l/m 0,3 km/h N 7,9 C 11,6 C 4,0 km/h
04.10.2010 03:00 11,5 C 78 % 1014,2 hPa 0,0 l/m 0,5 km/h N 7,8 C 11,5 C 6,0 km/h
04.10.2010 04:00 11,4 C 78 % 1013,6 hPa 0,0 l/m 0,7 km/h N 7,7 C 11,4 C 7,6 km/h
04.10.2010 05:00 11,3 C 77 % 1013,4 hPa 0,0 l/m 0,5 km/h N 7,5 C 11,3 C 7,2 km/h
04.10.2010 06:00 11,3 C 78 % 1013,3 hPa 0,0 l/m 0,6 km/h N 7,7 C 11,3 C 6,0 km/h
04.10.2010 07:00 11,3 C 80 % 1013,4 hPa 0,0 l/m 0,2 km/h N 7,9 C 11,3 C 2,8 km/h
04.10.2010 08:00 11,2 C 81 % 1013,7 hPa 0,0 l/m 0,4 km/h N 8,0 C 11,2 C 3,6 km/h
04.10.2010 09:00 11,3 C 82 % 1013,8 hPa 0,0 l/m 0,8 km/h O-NO 8,3 C 11,3 C 4,8 km/h
04.10.2010 10:00 11,3 C 83 % 1013,9 hPa 0,0 l/m 0,9 km/h N 8,5 C 11,3 C 4,0 km/h
04.10.2010 11:00 11,2 C 85 % 1013,6 hPa 0,0 l/m 0,6 km/h N 8,7 C 11,2 C 3,6 km/h
04.10.2010 12:00 11,5 C 85 % 1013,3 hPa 0,0 l/m 0,8 km/h N 9,1 C 11,5 C 4,8 km/h
04.10.2010 13:00 11,8 C 85 % 1012,9 hPa 0,0 l/m 1,1 km/h O-SO 9,3 C 11,8 C 5,2 km/h
04.10.2010 14:00 11,6 C 86 % 1012,5 hPa 0,0 l/m 0,5 km/h N 9,4 C 11,6 C 4,0 km/h
04.10.2010 15:00 11,6 C 86 % 1012,2 hPa 0,0 l/m 0,1 km/h N 9,3 C 11,6 C 3,2 km/h
04.10.2010 16:00 11,8 C 86 % 1012,0 hPa 0,0 l/m 0,1 km/h N 9,5 C 11,8 C 1,6 km/h
04.10.2010 17:00 12,0 C 86 % 1011,8 hPa 0,0 l/m 0,0 km/h N 9,7 C 12,0 C 1,6 km/h
04.10.2010 18:00 12,2 C 86 % 1011,7 hPa 0,0 l/m 0,3 km/h N 9,9 C 12,2 C 4,8 km/h
04.10.2010 19:00 12,3 C 86 % 1011,7 hPa 0,0 l/m 0,3 km/h SW 10,0 C 12,3 C 5,6 km/h
04.10.2010 20:00 12,6 C 85 % 1011,8 hPa 0,0 l/m 0,9 km/h N 10,1 C 12,6 C 10,4 km/h
04.10.2010 21:00 12,4 C 84 % 1011,7 hPa 0,0 l/m 0,7 km/h N 9,8 C 12,4 C 10,9 km/h
04.10.2010 22:00 12,3 C 85 % 1011,4 hPa 0,0 l/m 0,4 km/h N 9,9 C 12,3 C 5,2 km/h
04.10.2010 23:00 12,2 C 85 % 1011,2 hPa 0,0 l/m 0,4 km/h N 9,8 C 12,2 C 8,0 km/h
05.10.2010 00:00 12,2 C 85 % 1010,8 hPa 0,0 l/m 0,3 km/h N 9,8 C 12,2 C 4,0 km/h
05.10.2010 01:00 12,2 C 85 % 1010,5 hPa 0,0 l/m 0,1 km/h N 9,8 C 12,2 C 2,0 km/h
05.10.2010 02:00 12,2 C 85 % 1010,2 hPa 0,0 l/m 0,1 km/h N 9,8 C 12,2 C 2,0 km/h
05.10.2010 03:00 12,2 C 85 % 1009,9 hPa 0,0 l/m 0,1 km/h N 9,8 C 12,2 C 2,4 km/h
05.10.2010 04:00 12,1 C 85 % 1009,8 hPa 0,0 l/m 0,1 km/h N 9,7 C 12,1 C 2,4 km/h
05.10.2010 05:00 11,9 C 86 % 1009,9 hPa 0,0 l/m 0,1 km/h N 9,6 C 11,9 C 3,2 km/h
05.10.2010 06:00 11,6 C 86 % 1010,0 hPa 0,0 l/m 0,1 km/h N 9,3 C 11,6 C 1,6 km/h
05.10.2010 07:00 11,1 C 86 % 1010,4 hPa 0,0 l/m 0,2 km/h N 8,9 C 11,1 C 2,0 km/h
05.10.2010 08:00 10,8 C 86 % 1010,9 hPa 0,0 l/m 0,6 km/h O 8,5 C 10,8 C 4,0 km/h
05.10.2010 09:00 10,6 C 87 % 1011,4 hPa 0,0 l/m 0,7 km/h N 8,4 C 10,6 C 4,0 km/h
05.10.2010 10:00 10,7 C 87 % 1011,6 hPa 0,0 l/m 0,7 km/h N 8,6 C 10,7 C 3,6 km/h
05.10.2010 11:00 10,9 C 87 % 1011,8 hPa 0,0 l/m 0,3 km/h N 8,8 C 10,9 C 3,6 km/h
05.10.2010 12:00 11,2 C 86 % 1012,0 hPa 0,0 l/m 0,3 km/h N 8,9 C 11,2 C 2,4 km/h
05.10.2010 13:00 11,3 C 85 % 1011,9 hPa 0,0 l/m 0,6 km/h N 8,9 C 11,3 C 4,0 km/h
05.10.2010 14:00 11,4 C 85 % 1012,1 hPa 0,0 l/m 0,5 km/h N 8,9 C 11,4 C 4,0 km/h
05.10.2010 15:00 11,2 C 86 % 1012,3 hPa 0,0 l/m 0,8 km/h N 9,0 C 11,2 C 3,6 km/h
05.10.2010 16:00 11,1 C 87 % 1012,6 hPa 0,0 l/m 0,4 km/h N 9,0 C 11,1 C 2,8 km/h
05.10.2010 17:00 11,0 C 88 % 1013,1 hPa 0,3 l/m 0,1 km/h N 9,0 C 11,0 C 1,6 km/h
05.10.2010 18:00 10,8 C 88 % 1013,5 hPa 0,3 l/m 0,0 km/h N 8,8 C 10,8 C 1,6 km/h
05.10.2010 19:00 10,7 C 88 % 1013,9 hPa 0,3 l/m 0,0 km/h N 8,8 C 10,7 C 1,2 km/h
05.10.2010 20:00 10,7 C 88 % 1014,4 hPa 0,3 l/m 0,1 km/h N 8,7 C 10,7 C 2,0 km/h
05.10.2010 21:00 10,4 C 88 % 1014,8 hPa 0,0 l/m 0,3 km/h N 8,4 C 10,4 C 3,2 km/h
05.10.2010 22:00 10,3 C 87 % 1015,2 hPa 0,0 l/m 0,1 km/h N 8,2 C 10,3 C 2,0 km/h
05.10.2010 23:00 10,3 C 87 % 1015,2 hPa 0,0 l/m 0,0 km/h N 8,2 C 10,3 C 1,2 km/h
06.10.2010 00:00 10,4 C 87 % 1015,4 hPa 0,0 l/m 0,0 km/h N 8,3 C 10,4 C 0,8 km/h
06.10.2010 01:00 10,4 C 87 % 1015,5 hPa 0,0 l/m 0,0 km/h N 8,3 C 10,4 C 1,2 km/h
06.10.2010 02:00 10,4 C 87 % 1015,8 hPa 0,5 l/m 0,0 km/h N 8,3 C 10,4 C 0,4 km/h
06.10.2010 03:00 10,3 C 87 % 1015,8 hPa 0,5 l/m 0,0 km/h N 8,3 C 10,3 C 0,8 km/h
06.10.2010 04:00 10,3 C 87 % 1016,0 hPa 0,5 l/m 0,0 km/h N 8,2 C 10,3 C 0,0 km/h
06.10.2010 05:00 10,2 C 87 % 1016,4 hPa 0,0 l/m 0,0 km/h N 8,1 C 10,2 C 1,2 km/h
06.10.2010 06:00 10,1 C 87 % 1016,9 hPa 0,8 l/m 0,0 km/h N 8,0 C 10,1 C 0,4 km/h
06.10.2010 07:00 10,1 C 87 % 1017,4 hPa 0,3 l/m 0,0 km/h N 8,0 C 10,1 C 1,2 km/h
06.10.2010 08:00 10,1 C 87 % 1018,0 hPa 0,0 l/m 0,0 km/h N 8,0 C 10,1 C 1,6 km/h
06.10.2010 09:00 10,1 C 86 % 1018,3 hPa 0,0 l/m 0,0 km/h N 7,9 C 10,1 C 1,2 km/h
06.10.2010 10:00 10,3 C 85 % 1018,7 hPa 0,0 l/m 0,0 km/h N 7,8 C 10,3 C 1,6 km/h
06.10.2010 11:00 10,7 C 83 % 1018,9 hPa 0,0 l/m 0,0 km/h N 7,9 C 10,7 C 1,6 km/h
06.10.2010 12:00 10,9 C 83 % 1019,4 hPa 0,0 l/m 0,0 km/h N 8,2 C 10,9 C 1,6 km/h
06.10.2010 13:00 11,1 C 83 % 1019,7 hPa 0,0 l/m 0,0 km/h N 8,4 C 11,1 C 4,0 km/h
06.10.2010 14:00 11,4 C 83 % 1019,7 hPa 0,0 l/m 0,0 km/h N 8,6 C 11,4 C 2,4 km/h
06.10.2010 15:00 11,5 C 83 % 1019,5 hPa 0,0 l/m 0,4 km/h N 8,7 C 11,5 C 6,4 km/h
06.10.2010 16:00 11,7 C 83 % 1019,6 hPa 0,0 l/m 0,5 km/h N 8,9 C 11,7 C 5,2 km/h
06.10.2010 17:00 11,7 C 83 % 1020,0 hPa 0,0 l/m 0,4 km/h N 9,0 C 11,7 C 5,2 km/h
06.10.2010 18:00 11,6 C 84 % 1020,4 hPa 0,0 l/m 0,3 km/h N 9,0 C 11,6 C 4,8 km/h
06.10.2010 19:00 11,6 C 84 % 1021,0 hPa 0,0 l/m 0,4 km/h N 9,0 C 11,6 C 5,6 km/h
06.10.2010 20:00 11,6 C 84 % 1021,5 hPa 0,0 l/m 0,1 km/h N 9,0 C 11,6 C 2,0 km/h
06.10.2010 21:00 11,6 C 84 % 1021,7 hPa 0,0 l/m 0,2 km/h N 9,0 C 11,6 C 4,0 km/h
06.10.2010 22:00 11,6 C 85 % 1021,6 hPa 0,3 l/m 0,3 km/h N 9,0 C 11,6 C 4,8 km/h
06.10.2010 23:00 11,4 C 85 % 1021,5 hPa 0,0 l/m 0,2 km/h N 9,0 C 11,4 C 4,0 km/h
07.10.2010 00:00 11,3 C 85 % 1021,3 hPa 0,0 l/m 0,1 km/h N 8,9 C 11,3 C 2,4 km/h
07.10.2010 01:00 11,1 C 85 % 1021,3 hPa 0,0 l/m 0,1 km/h N 8,7 C 11,1 C 2,0 km/h
07.10.2010 02:00 11,1 C 85 % 1021,2 hPa 0,0 l/m 0,1 km/h N 8,7 C 11,1 C 3,6 km/h
07.10.2010 03:00 11,2 C 85 % 1021,2 hPa 0,0 l/m 0,1 km/h N 8,8 C 11,2 C 2,4 km/h
07.10.2010 04:00 11,2 C 85 % 1021,5 hPa 0,0 l/m 0,1 km/h N 8,8 C 11,2 C 2,8 km/h
07.10.2010 05:00 11,2 C 85 % 1021,9 hPa 0,0 l/m 0,0 km/h N 8,8 C 11,2 C 0,8 km/h
07.10.2010 06:00 11,0 C 85 % 1022,1 hPa 0,0 l/m 0,1 km/h N 8,6 C 11,0 C 1,6 km/h
07.10.2010 07:00 11,0 C 85 % 1022,6 hPa 0,0 l/m 0,1 km/h N 8,6 C 11,0 C 1,2 km/h
07.10.2010 08:00 11,4 C 85 % 1023,1 hPa 0,0 l/m 0,5 km/h O-SO 9,0 C 11,4 C 3,6 km/h
07.10.2010 09:00 12,7 C 83 % 1023,3 hPa 0,0 l/m 0,9 km/h O 9,9 C 12,7 C 4,8 km/h
07.10.2010 10:00 14,1 C 81 % 1023,8 hPa 0,0 l/m 0,8 km/h O-NO 10,7 C 14,1 C 6,8 km/h
07.10.2010 11:00 14,8 C 78 % 1024,2 hPa 0,0 l/m 1,3 km/h O 10,9 C 14,8 C 6,8 km/h
07.10.2010 12:00 16,1 C 75 % 1024,1 hPa 0,0 l/m 1,9 km/h O-NO 11,5 C 16,1 C 9,3 km/h
07.10.2010 13:00 17,1 C 70 % 1023,9 hPa 0,0 l/m 2,1 km/h O 11,5 C 17,1 C 8,8 km/h
07.10.2010 14:00 18,0 C 65 % 1023,8 hPa 0,0 l/m 2,1 km/h O 11,3 C 18,0 C 13,3 km/h
07.10.2010 15:00 18,0 C 64 % 1023,8 hPa 0,0 l/m 2,2 km/h O-SO 10,9 C 18,0 C 8,9 km/h
07.10.2010 16:00 16,2 C 71 % 1023,9 hPa 0,0 l/m 1,2 km/h O 10,8 C 16,2 C 4,0 km/h
07.10.2010 17:00 15,7 C 73 % 1024,0 hPa 0,0 l/m 1,2 km/h O-SO 10,8 C 15,7 C 6,0 km/h
07.10.2010 18:00 14,7 C 75 % 1024,1 hPa 0,0 l/m 0,1 km/h N 10,4 C 14,7 C 1,6 km/h
07.10.2010 19:00 13,6 C 78 % 1024,5 hPa 0,0 l/m 0,0 km/h N 9,7 C 13,6 C 0,8 km/h
07.10.2010 20:00 12,5 C 79 % 1024,9 hPa 0,0 l/m 0,0 km/h N 9,0 C 12,5 C 2,0 km/h
07.10.2010 21:00 11,3 C 81 % 1025,3 hPa 0,0 l/m 0,1 km/h N 8,1 C 11,3 C 1,2 km/h
07.10.2010 22:00 10,4 C 82 % 1025,4 hPa 0,0 l/m 0,0 km/h N 7,5 C 10,4 C 0,8 km/h
07.10.2010 23:00 9,5 C 83 % 1025,5 hPa 0,0 l/m 0,0 km/h N 6,7 C 9,5 C 0,8 km/h
08.10.2010 00:00 8,4 C 83 % 1025,4 hPa 0,0 l/m 0,0 km/h N 5,8 C 8,4 C 0,0 km/h
08.10.2010 01:00 7,4 C 84 % 1025,3 hPa 0,0 l/m 0,0 km/h N 4,9 C 7,4 C 0,0 km/h
08.10.2010 02:00 6,8 C 84 % 1025,3 hPa 0,0 l/m 0,0 km/h N 4,3 C 6,8 C 0,0 km/h
08.10.2010 03:00 6,2 C 85 % 1025,1 hPa 0,0 l/m 0,1 km/h N 3,8 C 6,2 C 0,8 km/h
08.10.2010 04:00 6,0 C 85 % 1025,3 hPa 0,0 l/m 0,0 km/h N 3,6 C 6,0 C 0,8 km/h
08.10.2010 05:00 5,5 C 85 % 1025,4 hPa 0,0 l/m 0,0 km/h N 3,2 C 5,5 C 0,4 km/h
08.10.2010 06:00 5,8 C 85 % 1025,6 hPa 0,0 l/m 0,0 km/h N 3,5 C 5,8 C 0,4 km/h
08.10.2010 07:00 7,6 C 85 % 1025,9 hPa 0,0 l/m 0,0 km/h N 5,2 C 7,6 C 0,8 km/h
08.10.2010 08:00 8,1 C 85 % 1026,4 hPa 0,0 l/m 0,0 km/h N 5,6 C 8,1 C 0,4 km/h
08.10.2010 09:00 9,8 C 84 % 1026,9 hPa 0,0 l/m 0,1 km/h N 7,2 C 9,8 C 1,6 km/h
08.10.2010 10:00 11,1 C 84 % 1027,1 hPa 0,0 l/m 1,8 km/h O 8,6 C 11,1 C 6,0 km/h
08.10.2010 11:00 12,1 C 84 % 1027,3 hPa 0,0 l/m 1,1 km/h O-NO 9,5 C 12,1 C 6,0 km/h
08.10.2010 12:00 13,9 C 76 % 1027,0 hPa 0,0 l/m 2,3 km/h O-SO 9,7 C 13,9 C 8,0 km/h
08.10.2010 13:00 14,9 C 68 % 1026,7 hPa 0,0 l/m 2,5 km/h O-SO 9,0 C 14,9 C 8,9 km/h
08.10.2010 14:00 15,0 C 65 % 1026,5 hPa 0,0 l/m 2,7 km/h O-SO 8,4 C 15,0 C 8,9 km/h
08.10.2010 15:00 14,9 C 64 % 1026,2 hPa 0,0 l/m 3,2 km/h O-SO 8,0 C 14,9 C 8,9 km/h
08.10.2010 16:00 14,6 C 63 % 1026,2 hPa 0,0 l/m 2,9 km/h O 7,7 C 14,6 C 8,4 km/h
08.10.2010 17:00 13,5 C 65 % 1026,3 hPa 0,0 l/m 1,5 km/h O 7,0 C 13,5 C 6,0 km/h
08.10.2010 18:00 12,4 C 67 % 1026,7 hPa 0,0 l/m 0,2 km/h N 6,4 C 12,4 C 5,6 km/h
08.10.2010 19:00 11,4 C 71 % 1026,9 hPa 0,0 l/m 0,0 km/h N 6,2 C 11,4 C 1,6 km/h
08.10.2010 20:00 10,3 C 74 % 1027,1 hPa 0,0 l/m 0,0 km/h N 5,8 C 10,3 C 1,2 km/h
08.10.2010 21:00 9,2 C 78 % 1027,2 hPa 0,0 l/m 0,0 km/h N 5,5 C 9,2 C 0,0 km/h
08.10.2010 22:00 8,7 C 80 % 1027,2 hPa 0,0 l/m 0,1 km/h N 5,4 C 8,7 C 2,0 km/h
08.10.2010 23:00 7,2 C 80 % 1027,1 hPa 0,0 l/m 0,0 km/h N 3,9 C 7,2 C 0,4 km/h
09.10.2010 00:00 5,8 C 82 % 1026,9 hPa 0,0 l/m 0,0 km/h N 2,9 C 5,8 C 0,0 km/h
09.10.2010 01:00 4,9 C 83 % 1026,7 hPa 0,0 l/m 0,0 km/h N 2,2 C 4,9 C 0,0 km/h
09.10.2010 02:00 4,2 C 84 % 1026,6 hPa 0,0 l/m 0,0 km/h N 1,7 C 4,2 C 0,0 km/h
09.10.2010 03:00 3,8 C 84 % 1026,3 hPa 0,0 l/m 0,0 km/h N 1,3 C 3,8 C 0,0 km/h
09.10.2010 04:00 3,3 C 85 % 1025,9 hPa 0,0 l/m 0,0 km/h N 1,0 C 3,3 C 0,0 km/h
09.10.2010 05:00 2,9 C 85 % 1025,9 hPa 0,0 l/m 0,0 km/h N 0,6 C 2,9 C 0,0 km/h
09.10.2010 06:00 2,5 C 85 % 1025,8 hPa 0,0 l/m 0,0 km/h N 0,2 C 2,5 C 0,0 km/h
09.10.2010 07:00 2,3 C 85 % 1026,0 hPa 0,0 l/m 0,0 km/h N -0,0 C 2,3 C 0,0 km/h
09.10.2010 08:00 3,0 C 85 % 1026,1 hPa 0,0 l/m 0,0 km/h N 0,7 C 3,0 C 0,0 km/h
09.10.2010 09:00 5,3 C 85 % 1025,8 hPa 0,0 l/m 0,0 km/h N 3,0 C 5,3 C 1,2 km/h
09.10.2010 10:00 6,9 C 85 % 1025,5 hPa 0,0 l/m 0,2 km/h N 4,6 C 6,9 C 3,6 km/h
09.10.2010 11:00 8,2 C 85 % 1025,3 hPa 0,0 l/m 0,3 km/h N 5,8 C 8,2 C 4,4 km/h
09.10.2010 12:00 10,6 C 82 % 1024,6 hPa 0,0 l/m 0,4 km/h N 7,6 C 10,6 C 3,6 km/h
09.10.2010 13:00 12,9 C 64 % 1023,5 hPa 0,0 l/m 0,5 km/h NO 6,2 C 12,9 C 4,8 km/h
09.10.2010 14:00 13,6 C 61 % 1022,8 hPa 0,0 l/m 0,9 km/h O-NO 6,2 C 13,6 C 4,8 km/h
09.10.2010 15:00 14,0 C 58 % 1022,1 hPa 0,0 l/m 1,0 km/h O-NO 5,9 C 14,0 C 4,0 km/h
09.10.2010 16:00 14,0 C 52 % 1021,5 hPa 0,0 l/m 0,8 km/h N 4,4 C 14,0 C 2,8 km/h
09.10.2010 17:00 13,4 C 57 % 1021,1 hPa 0,0 l/m 0,2 km/h N 5,0 C 13,4 C 2,0 km/h
09.10.2010 18:00 12,0 C 66 % 1021,2 hPa 0,0 l/m 0,0 km/h N 5,7 C 12,0 C 0,4 km/h
09.10.2010 19:00 9,6 C 73 % 1021,1 hPa 0,0 l/m 0,1 km/h N 5,0 C 9,6 C 1,2 km/h
09.10.2010 20:00 7,9 C 77 % 1020,9 hPa 0,0 l/m 0,0 km/h N 4,1 C 7,9 C 0,8 km/h
09.10.2010 21:00 7,1 C 80 % 1020,7 hPa 0,0 l/m 0,1 km/h N 3,9 C 7,1 C 1,2 km/h
09.10.2010 22:00 6,2 C 82 % 1020,4 hPa 0,0 l/m 0,0 km/h N 3,3 C 6,2 C 0,0 km/h
09.10.2010 23:00 5,3 C 83 % 1020,0 hPa 0,0 l/m 0,0 km/h N 2,7 C 5,3 C 0,4 km/h
10.10.2010 00:00 4,8 C 84 % 1019,6 hPa 0,0 l/m 0,0 km/h N 2,3 C 4,8 C 0,8 km/h
10.10.2010 01:00 4,4 C 84 % 1019,0 hPa 0,0 l/m 0,0 km/h N 2,0 C 4,4 C 0,8 km/h
10.10.2010 02:00 4,0 C 85 % 1018,6 hPa 0,0 l/m 0,0 km/h N 1,7 C 4,0 C 0,0 km/h
10.10.2010 03:00 3,3 C 85 % 1018,2 hPa 0,0 l/m 0,0 km/h N 1,0 C 3,3 C 0,0 km/h
10.10.2010 04:00 2,8 C 85 % 1017,7 hPa 0,0 l/m 0,0 km/h N 0,5 C 2,8 C 0,8 km/h
10.10.2010 05:00 2,5 C 85 % 1017,3 hPa 0,0 l/m 0,0 km/h N 0,3 C 2,5 C 0,8 km/h
10.10.2010 06:00 2,2 C 85 % 1017,3 hPa 0,0 l/m 0,0 km/h N -0,1 C 2,2 C 0,0 km/h
10.10.2010 07:00 1,7 C 85 % 1017,3 hPa 0,0 l/m 0,0 km/h N -0,6 C 1,7 C 0,8 km/h
10.10.2010 08:00 2,1 C 85 % 1017,3 hPa 0,0 l/m 0,0 km/h N -0,2 C 2,1 C 1,2 km/h
10.10.2010 09:00 3,9 C 85 % 1017,4 hPa 0,0 l/m 0,0 km/h N 1,6 C 3,9 C 1,6 km/h
10.10.2010 10:00 5,9 C 85 % 1017,1 hPa 0,0 l/m 0,1 km/h N 3,6 C 5,9 C 0,8 km/h
10.10.2010 11:00 8,0 C 84 % 1016,7 hPa 0,0 l/m 0,2 km/h N 5,4 C 8,0 C 1,6 km/h
10.10.2010 12:00 10,8 C 74 % 1016,2 hPa 0,0 l/m 0,4 km/h N 6,3 C 10,8 C 2,4 km/h
10.10.2010 13:00 12,4 C 67 % 1015,7 hPa 0,0 l/m 0,6 km/h N 6,4 C 12,4 C 4,0 km/h
10.10.2010 14:00 13,1 C 64 % 1015,3 hPa 0,0 l/m 0,4 km/h N 6,5 C 13,1 C 2,4 km/h
10.10.2010 15:00 13,8 C 60 % 1014,9 hPa 0,0 l/m 0,5 km/h N 6,0 C 13,8 C 3,2 km/h
10.10.2010 16:00 13,9 C 57 % 1014,7 hPa 0,0 l/m 0,5 km/h N 5,5 C 13,9 C 2,4 km/h
10.10.2010 17:00 13,3 C 61 % 1014,6 hPa 0,0 l/m 0,2 km/h N 5,8 C 13,3 C 1,2 km/h
10.10.2010 18:00 11,9 C 67 % 1014,8 hPa 0,0 l/m 0,0 km/h N 6,0 C 11,9 C 0,4 km/h
10.10.2010 19:00 9,5 C 75 % 1015,0 hPa 0,0 l/m 0,0 km/h N 5,1 C 9,5 C 0,4 km/h
10.10.2010 20:00 7,6 C 79 % 1015,4 hPa 0,0 l/m 0,0 km/h N 4,2 C 7,6 C 0,0 km/h
10.10.2010 21:00 6,5 C 82 % 1015,7 hPa 0,0 l/m 0,0 km/h N 3,7 C 6,5 C 0,0 km/h
10.10.2010 22:00 6,0 C 84 % 1015,8 hPa 0,0 l/m 0,0 km/h N 3,4 C 6,0 C 0,4 km/h
10.10.2010 23:00 5,6 C 84 % 1015,6 hPa 0,0 l/m 0,0 km/h N 3,1 C 5,6 C 0,0 km/h
Min-Datum _ 10.10.10 09.10.10 05.10.10 - 04.10.10 - 10.10.10 10.10.10 04.10.10
_ Min-Zeit 07:30 16:03 04:00 - 15:30 - 07:30 07:30 16:30
Minimum _ 1,6 C 52 % 1009,7 hPa - 0,0 km/h - -0,6 C 1,6 C 0,0 km/h
Max-Datum _ 07.10.10 05.10.10 08.10.10 06.10.10 08.10.10 - 07.10.10 07.10.10 07.10.10
_ Max-Zeit 14:45 17:30 11:00 06:15 15:00 - 13:15 14:45 14:00
Maximum _ 18,4 C 88 % 1027,3 hPa 0,8 l/m 4,0 km/h
O-SO
- 11,8 C 18,3 C 20,9 km/h
O
Durchschnitt _ 10,2 C 81 % 1019,1 hPa #3,9 l/m 0,4 km/h O 7,0 C 10,2 C 2,9 km/h